createdAt,value
2022-09-16T00:01:36.000Z,45.7
2022-09-16T00:02:45.000Z,45.7
2022-09-16T00:03:55.000Z,45.7
2022-09-16T00:05:04.000Z,45.7
2022-09-16T00:06:13.000Z,45.7
2022-09-16T00:07:22.000Z,45.7
2022-09-16T00:08:31.000Z,45.7
2022-09-16T00:09:41.000Z,45.7
2022-09-16T00:10:51.000Z,45.7
2022-09-16T00:12:01.000Z,45.7
2022-09-16T00:13:12.000Z,45.8
2022-09-16T00:14:22.000Z,45.7
2022-09-16T00:15:32.000Z,45.8
2022-09-16T00:16:42.000Z,45.8
2022-09-16T00:17:52.000Z,45.8
2022-09-16T00:20:12.000Z,45.8
2022-09-16T00:21:22.000Z,45.8
2022-09-16T00:22:32.000Z,45.8
2022-09-16T00:23:42.000Z,45.8
2022-09-16T00:24:52.000Z,45.8
2022-09-16T00:26:02.000Z,45.8
2022-09-16T00:27:12.000Z,45.8
2022-09-16T00:28:22.000Z,45.8
2022-09-16T00:29:32.000Z,45.8
2022-09-16T00:30:42.000Z,45.8
2022-09-16T00:31:52.000Z,45.8
2022-09-16T00:33:02.000Z,45.8
2022-09-16T00:34:11.000Z,45.8
2022-09-16T00:35:20.000Z,45.8
2022-09-16T00:36:29.000Z,45.8
2022-09-16T00:37:39.000Z,45.8
2022-09-16T00:38:49.000Z,45.8
2022-09-16T00:39:59.000Z,45.8
2022-09-16T00:41:09.000Z,45.8
2022-09-16T00:42:20.000Z,45.8
2022-09-16T00:43:30.000Z,45.8
2022-09-16T00:44:40.000Z,45.8
2022-09-16T00:45:50.000Z,45.8
2022-09-16T00:47:00.000Z,45.8
2022-09-16T00:48:10.000Z,45.9
2022-09-16T00:49:20.000Z,45.9
2022-09-16T00:50:30.000Z,45.9
2022-09-16T00:52:50.000Z,45.9
2022-09-16T00:54:00.000Z,45.9
2022-09-16T00:55:10.000Z,45.9
2022-09-16T00:56:20.000Z,45.9
2022-09-16T00:57:30.000Z,45.9
2022-09-16T00:58:40.000Z,45.9
2022-09-16T00:59:50.000Z,45.9
2022-09-16T01:00:59.000Z,45.9
2022-09-16T01:03:19.000Z,45.9
2022-09-16T01:04:29.000Z,45.9
2022-09-16T01:05:38.000Z,45.9
2022-09-16T01:06:47.000Z,45.9
2022-09-16T01:07:57.000Z,45.9
2022-09-16T01:09:07.000Z,45.9
2022-09-16T01:10:17.000Z,46
2022-09-16T01:11:28.000Z,45.9
2022-09-16T01:12:38.000Z,46
2022-09-16T01:13:48.000Z,46
2022-09-16T01:14:58.000Z,46
2022-09-16T01:16:08.000Z,46
2022-09-16T01:17:18.000Z,46
2022-09-16T01:18:28.000Z,46
2022-09-16T01:19:38.000Z,46
2022-09-16T01:20:48.000Z,46
2022-09-16T01:21:58.000Z,46
2022-09-16T01:23:08.000Z,46
2022-09-16T01:24:18.000Z,46
2022-09-16T01:25:28.000Z,46
2022-09-16T01:26:38.000Z,46
2022-09-16T01:27:48.000Z,46
2022-09-16T01:28:58.000Z,46
2022-09-16T01:30:07.000Z,46
2022-09-16T01:31:17.000Z,46
2022-09-16T01:32:27.000Z,46
2022-09-16T01:33:36.000Z,46
2022-09-16T01:34:45.000Z,46
2022-09-16T01:35:55.000Z,46
2022-09-16T01:37:05.000Z,46
2022-09-16T01:38:15.000Z,46
2022-09-16T01:39:25.000Z,46
2022-09-16T01:40:36.000Z,46.1
2022-09-16T01:41:46.000Z,46
2022-09-16T01:42:56.000Z,46.1
2022-09-16T01:44:06.000Z,46
2022-09-16T01:45:16.000Z,46.1
2022-09-16T01:46:26.000Z,46.1
2022-09-16T01:47:36.000Z,46.1
2022-09-16T01:48:46.000Z,46.1
2022-09-16T01:49:55.000Z,46.1
2022-09-16T01:51:06.000Z,46.1
2022-09-16T01:52:16.000Z,46.1
2022-09-16T01:53:26.000Z,46.1
2022-09-16T01:54:36.000Z,46.1
2022-09-16T01:55:46.000Z,46.1
2022-09-16T01:56:56.000Z,46.1
2022-09-16T01:58:05.000Z,46.1
2022-09-16T01:59:14.000Z,46.1
2022-09-16T02:00:25.000Z,46.1
2022-09-16T02:01:34.000Z,46.1
2022-09-16T02:02:43.000Z,46.1
2022-09-16T02:03:53.000Z,46.1
2022-09-16T02:05:03.000Z,46.1
2022-09-16T02:06:13.000Z,46.1
2022-09-16T02:07:23.000Z,46.1
2022-09-16T02:08:33.000Z,46.1
2022-09-16T02:09:44.000Z,46.2
2022-09-16T02:10:54.000Z,46.1
2022-09-16T02:12:04.000Z,46.1
2022-09-16T02:13:14.000Z,46.2
2022-09-16T02:14:24.000Z,46.2
2022-09-16T02:15:34.000Z,46.1
2022-09-16T02:16:44.000Z,46.2
2022-09-16T02:17:53.000Z,46.1
2022-09-16T02:19:03.000Z,46.2
2022-09-16T02:20:14.000Z,46.2
2022-09-16T02:21:24.000Z,46.2
2022-09-16T02:22:34.000Z,46.3
2022-09-16T02:23:44.000Z,46.2
2022-09-16T02:24:54.000Z,46.3
2022-09-16T02:26:04.000Z,46.3
2022-09-16T02:27:13.000Z,46.3
2022-09-16T02:28:22.000Z,46.3
2022-09-16T02:29:33.000Z,46.3
2022-09-16T02:30:43.000Z,46.3
2022-09-16T02:31:52.000Z,46.3
2022-09-16T02:33:02.000Z,46.3
2022-09-16T02:34:11.000Z,46.3
2022-09-16T02:35:21.000Z,46.3
2022-09-16T02:36:31.000Z,46.3
2022-09-16T02:37:41.000Z,46.3
2022-09-16T02:38:52.000Z,46.3
2022-09-16T02:40:02.000Z,46.3
2022-09-16T02:41:12.000Z,46.3
2022-09-16T02:42:22.000Z,46.3
2022-09-16T02:43:32.000Z,46.4
2022-09-16T02:44:42.000Z,46.3
2022-09-16T02:45:52.000Z,46.4
2022-09-16T02:47:02.000Z,46.3
2022-09-16T02:48:12.000Z,46.3
2022-09-16T02:49:22.000Z,46.4
2022-09-16T02:50:32.000Z,46.3
2022-09-16T02:51:42.000Z,46.4
2022-09-16T02:52:52.000Z,46.4
2022-09-16T02:54:02.000Z,46.4
2022-09-16T02:55:12.000Z,46.4
2022-09-16T02:56:21.000Z,46.4
2022-09-16T02:57:30.000Z,46.4
2022-09-16T02:58:41.000Z,46.4
2022-09-16T02:59:51.000Z,46.4
2022-09-16T03:01:01.000Z,46.4
2022-09-16T03:02:10.000Z,46.4
2022-09-16T03:03:20.000Z,46.4
2022-09-16T03:04:30.000Z,46.4
2022-09-16T03:05:40.000Z,46.4
2022-09-16T03:06:50.000Z,46.4
2022-09-16T03:08:01.000Z,46.4
2022-09-16T03:09:11.000Z,46.4
2022-09-16T03:10:21.000Z,46.4
2022-09-16T03:11:31.000Z,46.4
2022-09-16T03:12:41.000Z,46.4
2022-09-16T03:13:51.000Z,46.4
2022-09-16T03:15:01.000Z,46.4
2022-09-16T03:16:11.000Z,46.4
2022-09-16T03:17:21.000Z,46.4
2022-09-16T03:18:31.000Z,46.4
2022-09-16T03:19:41.000Z,46.4
2022-09-16T03:20:50.000Z,46.4
2022-09-16T03:23:09.000Z,46.4
2022-09-16T03:24:18.000Z,46.4
2022-09-16T03:25:27.000Z,46.4
2022-09-16T03:26:37.000Z,46.4
2022-09-16T03:27:48.000Z,46.4
2022-09-16T03:28:58.000Z,46.4
2022-09-16T03:30:08.000Z,46.4
2022-09-16T03:31:18.000Z,46.4
2022-09-16T03:32:28.000Z,46.4
2022-09-16T03:33:38.000Z,46.4
2022-09-16T03:34:48.000Z,46.4
2022-09-16T03:35:58.000Z,46.4
2022-09-16T03:37:09.000Z,46.4
2022-09-16T03:38:19.000Z,46.4
2022-09-16T03:39:29.000Z,46.4
2022-09-16T03:40:38.000Z,46.4
2022-09-16T03:41:48.000Z,46.4
2022-09-16T03:42:58.000Z,46.4
2022-09-16T03:44:08.000Z,46.4
2022-09-16T03:45:18.000Z,46.4
2022-09-16T03:46:28.000Z,46.4
2022-09-16T03:47:39.000Z,46.4
2022-09-16T03:48:48.000Z,46.4
2022-09-16T03:49:57.000Z,46.4
2022-09-16T03:51:07.000Z,46.4
2022-09-16T03:52:17.000Z,46.4
2022-09-16T03:53:26.000Z,46.4
2022-09-16T03:54:35.000Z,46.4
2022-09-16T03:55:45.000Z,46.4
2022-09-16T03:56:56.000Z,46.4
2022-09-16T03:58:06.000Z,46.4
2022-09-16T03:59:16.000Z,46.4
2022-09-16T04:00:26.000Z,46.4
2022-09-16T04:01:36.000Z,46.4
2022-09-16T04:02:46.000Z,46.4
2022-09-16T04:03:56.000Z,46.4
2022-09-16T04:05:06.000Z,46.4
2022-09-16T04:06:17.000Z,46.4
2022-09-16T04:07:27.000Z,46.5
2022-09-16T04:08:37.000Z,46.4
2022-09-16T04:09:46.000Z,46.4
2022-09-16T04:10:56.000Z,46.4
2022-09-16T04:12:06.000Z,46.4
2022-09-16T04:13:16.000Z,46.4
2022-09-16T04:14:26.000Z,46.4
2022-09-16T04:15:36.000Z,46.4
2022-09-16T04:16:47.000Z,46.5
2022-09-16T04:17:56.000Z,46.5
2022-09-16T04:19:05.000Z,46.5
2022-09-16T04:20:15.000Z,46.5
2022-09-16T04:21:25.000Z,46.5
2022-09-16T04:22:35.000Z,46.5
2022-09-16T04:23:44.000Z,46.5
2022-09-16T04:24:53.000Z,46.5
2022-09-16T04:26:04.000Z,46.5
2022-09-16T04:27:14.000Z,46.5
2022-09-16T04:28:24.000Z,46.5
2022-09-16T04:29:34.000Z,46.5
2022-09-16T04:30:44.000Z,46.5
2022-09-16T04:31:54.000Z,46.5
2022-09-16T04:33:04.000Z,46.5
2022-09-16T04:34:14.000Z,46.5
2022-09-16T04:35:25.000Z,46.5
2022-09-16T04:36:35.000Z,46.5
2022-09-16T04:37:45.000Z,46.5
2022-09-16T04:38:55.000Z,46.5
2022-09-16T04:40:04.000Z,46.5
2022-09-16T04:41:14.000Z,46.5
2022-09-16T04:42:24.000Z,46.5
2022-09-16T04:43:34.000Z,46.5
2022-09-16T04:44:44.000Z,46.5
2022-09-16T04:45:55.000Z,46.5
2022-09-16T04:47:05.000Z,46.5
2022-09-16T04:48:14.000Z,46.5
2022-09-16T04:49:23.000Z,46.5
2022-09-16T04:50:32.000Z,46.5
2022-09-16T04:51:41.000Z,46.5
2022-09-16T04:52:51.000Z,46.5
2022-09-16T04:54:01.000Z,46.5
2022-09-16T04:55:12.000Z,46.6
2022-09-16T04:56:22.000Z,46.6
2022-09-16T04:57:32.000Z,46.6
2022-09-16T04:58:42.000Z,46.6
2022-09-16T04:59:52.000Z,46.6
2022-09-16T05:01:02.000Z,46.5
2022-09-16T05:02:12.000Z,46.6
2022-09-16T05:03:22.000Z,46.6
2022-09-16T05:04:33.000Z,46.6
2022-09-16T05:06:53.000Z,46.6
2022-09-16T05:08:02.000Z,46.6
2022-09-16T05:09:12.000Z,46.6
2022-09-16T05:10:22.000Z,46.6
2022-09-16T05:12:42.000Z,46.6
2022-09-16T05:15:02.000Z,46.7
2022-09-16T05:16:11.000Z,46.7
2022-09-16T05:17:20.000Z,46.7
2022-09-16T05:18:30.000Z,46.7
2022-09-16T05:19:40.000Z,46.9
2022-09-16T05:20:50.000Z,46.9
2022-09-16T05:22:00.000Z,46.9
2022-09-16T05:23:10.000Z,46.9
2022-09-16T05:24:21.000Z,46.9
2022-09-16T05:25:31.000Z,46.9
2022-09-16T05:26:41.000Z,46.9
2022-09-16T05:27:51.000Z,46.9
2022-09-16T05:29:00.000Z,46.9
2022-09-16T05:30:09.000Z,46.9
2022-09-16T05:31:19.000Z,46.9
2022-09-16T05:32:29.000Z,46.9
2022-09-16T05:33:40.000Z,46.9
2022-09-16T05:34:50.000Z,46.9
2022-09-16T05:36:00.000Z,46.9
2022-09-16T05:37:10.000Z,46.9
2022-09-16T05:38:20.000Z,46.9
2022-09-16T05:39:30.000Z,46.8
2022-09-16T05:40:40.000Z,46.8
2022-09-16T05:41:50.000Z,46.7
2022-09-16T05:43:00.000Z,46.7
2022-09-16T05:44:11.000Z,46.7
2022-09-16T05:45:20.000Z,46.6
2022-09-16T05:46:30.000Z,46.6
2022-09-16T05:47:40.000Z,46.6
2022-09-16T05:48:50.000Z,46.6
2022-09-16T05:50:00.000Z,46.6
2022-09-16T05:51:10.000Z,46.6
2022-09-16T05:52:20.000Z,46.6
2022-09-16T05:53:31.000Z,46.5
2022-09-16T05:54:41.000Z,46.5
2022-09-16T05:55:51.000Z,46.5
2022-09-16T05:57:01.000Z,46.5
2022-09-16T05:58:11.000Z,46.5
2022-09-16T05:59:21.000Z,46.5
2022-09-16T06:00:30.000Z,46.5
2022-09-16T06:01:40.000Z,46.4
2022-09-16T06:02:50.000Z,46.4
2022-09-16T06:04:01.000Z,46.4
2022-09-16T06:05:11.000Z,46.4
2022-09-16T06:06:21.000Z,46.4
2022-09-16T06:07:31.000Z,46.4
2022-09-16T06:08:41.000Z,46.5
2022-09-16T06:09:51.000Z,46.5
2022-09-16T06:12:11.000Z,46.5
2022-09-16T06:13:22.000Z,46.5
2022-09-16T06:14:32.000Z,46.5
2022-09-16T06:15:41.000Z,46.5
2022-09-16T06:16:50.000Z,46.6
2022-09-16T06:18:00.000Z,46.6
2022-09-16T06:19:10.000Z,46.6
2022-09-16T06:20:19.000Z,46.6
2022-09-16T06:21:28.000Z,46.6
2022-09-16T06:22:39.000Z,46.6
2022-09-16T06:23:49.000Z,46.6
2022-09-16T06:24:59.000Z,46.6
2022-09-16T06:26:09.000Z,46.6
2022-09-16T06:27:19.000Z,46.6
2022-09-16T06:28:29.000Z,46.6
2022-09-16T06:29:39.000Z,46.6
2022-09-16T06:30:49.000Z,46.7
2022-09-16T06:31:59.000Z,46.7
2022-09-16T06:33:10.000Z,46.7
2022-09-16T06:34:20.000Z,46.7
2022-09-16T06:35:30.000Z,46.7
2022-09-16T06:36:39.000Z,46.7
2022-09-16T06:37:49.000Z,46.8
2022-09-16T06:38:59.000Z,46.8
2022-09-16T06:40:09.000Z,46.8
2022-09-16T06:41:19.000Z,46.8
2022-09-16T06:42:30.000Z,46.8
2022-09-16T06:43:40.000Z,46.8
2022-09-16T06:44:49.000Z,46.8
2022-09-16T06:45:58.000Z,46.8
2022-09-16T06:47:08.000Z,46.8
2022-09-16T06:48:17.000Z,46.8
2022-09-16T06:49:26.000Z,46.8
2022-09-16T06:50:36.000Z,46.9
2022-09-16T06:51:47.000Z,46.9
2022-09-16T06:52:57.000Z,46.9
2022-09-16T06:54:07.000Z,46.9
2022-09-16T06:55:17.000Z,46.9
2022-09-16T06:56:26.000Z,46.8
2022-09-16T06:57:36.000Z,46.8
2022-09-16T06:58:46.000Z,46.8
2022-09-16T06:59:56.000Z,46.8
2022-09-16T07:01:06.000Z,46.8
2022-09-16T07:02:17.000Z,46.8
2022-09-16T07:03:27.000Z,46.8
2022-09-16T07:04:37.000Z,46.8
2022-09-16T07:05:47.000Z,46.8
2022-09-16T07:06:57.000Z,46.8
2022-09-16T07:08:07.000Z,46.7
2022-09-16T07:09:17.000Z,46.7
2022-09-16T07:10:27.000Z,46.7
2022-09-16T07:11:37.000Z,46.7
2022-09-16T07:12:46.000Z,46.7
2022-09-16T07:13:55.000Z,46.7
2022-09-16T07:15:05.000Z,46.7
2022-09-16T07:16:15.000Z,46.7
2022-09-16T07:18:35.000Z,46.7
2022-09-16T07:19:45.000Z,46.7
2022-09-16T07:20:55.000Z,46.7
2022-09-16T07:22:06.000Z,46.6
2022-09-16T07:23:16.000Z,46.6
2022-09-16T07:24:26.000Z,46.6
2022-09-16T07:25:36.000Z,46.6
2022-09-16T07:26:46.000Z,46.6
2022-09-16T07:27:56.000Z,46.6
2022-09-16T07:29:05.000Z,46.6
2022-09-16T07:30:15.000Z,46.5
2022-09-16T07:31:26.000Z,46.5
2022-09-16T07:33:46.000Z,46.4
2022-09-16T07:34:55.000Z,46.4
2022-09-16T07:36:04.000Z,46.5
2022-09-16T07:37:13.000Z,46.5
2022-09-16T07:38:22.000Z,46.5
2022-09-16T07:39:32.000Z,46.6
2022-09-16T07:40:43.000Z,46.6
2022-09-16T07:41:53.000Z,46.7
2022-09-16T07:43:03.000Z,46.7
2022-09-16T07:44:13.000Z,46.7
2022-09-16T07:45:23.000Z,46.7
2022-09-16T07:46:33.000Z,46.8
2022-09-16T07:47:43.000Z,46.8
2022-09-16T07:48:53.000Z,46.8
2022-09-16T07:50:03.000Z,46.8
2022-09-16T07:51:12.000Z,46.9
2022-09-16T07:52:22.000Z,46.9
2022-09-16T07:53:32.000Z,46.9
2022-09-16T07:54:42.000Z,46.9
2022-09-16T07:55:52.000Z,46.9
2022-09-16T07:57:02.000Z,47
2022-09-16T07:58:12.000Z,47
2022-09-16T07:59:22.000Z,47
2022-09-16T08:00:33.000Z,47
2022-09-16T08:01:43.000Z,47
2022-09-16T08:02:53.000Z,47.1
2022-09-16T08:04:03.000Z,47.1
2022-09-16T08:05:13.000Z,47.1
2022-09-16T08:06:22.000Z,47.1
2022-09-16T08:07:32.000Z,47.1
2022-09-16T08:08:42.000Z,47.1
2022-09-16T08:09:53.000Z,47.2
2022-09-16T08:11:03.000Z,47.2
2022-09-16T08:12:13.000Z,47.2
2022-09-16T08:13:23.000Z,47.2
2022-09-16T08:14:32.000Z,47.2
2022-09-16T08:15:41.000Z,47.2
2022-09-16T08:16:50.000Z,47.2
2022-09-16T08:17:59.000Z,47.2
2022-09-16T08:19:10.000Z,47.2
2022-09-16T08:20:20.000Z,47.2
2022-09-16T08:21:30.000Z,47.2
2022-09-16T08:22:40.000Z,47.2
2022-09-16T08:23:50.000Z,47.2
2022-09-16T08:25:00.000Z,47.1
2022-09-16T08:26:10.000Z,47.1
2022-09-16T08:27:20.000Z,47.1
2022-09-16T08:28:30.000Z,47.1
2022-09-16T08:29:41.000Z,47
2022-09-16T08:30:51.000Z,47
2022-09-16T08:32:01.000Z,46.9
2022-09-16T08:33:11.000Z,46.9
2022-09-16T08:34:20.000Z,46.9
2022-09-16T08:35:30.000Z,46.8
2022-09-16T08:36:40.000Z,46.8
2022-09-16T08:37:50.000Z,46.8
2022-09-16T08:39:01.000Z,46.8
2022-09-16T08:40:11.000Z,46.7
2022-09-16T08:41:20.000Z,46.7
2022-09-16T08:42:29.000Z,46.7
2022-09-16T08:43:38.000Z,46.7
2022-09-16T08:44:47.000Z,46.7
2022-09-16T08:45:57.000Z,46.6
2022-09-16T08:47:07.000Z,46.6
2022-09-16T08:48:18.000Z,46.6
2022-09-16T08:49:28.000Z,46.6
2022-09-16T08:50:38.000Z,46.5
2022-09-16T08:51:48.000Z,46.5
2022-09-16T08:52:58.000Z,46.5
2022-09-16T08:54:08.000Z,46.4
2022-09-16T08:55:18.000Z,46.4
2022-09-16T08:56:28.000Z,46.3
2022-09-16T08:57:38.000Z,46.3
2022-09-16T08:58:49.000Z,46.3
2022-09-16T08:59:58.000Z,46.2
2022-09-16T09:01:08.000Z,46.2
2022-09-16T09:02:18.000Z,46.2
2022-09-16T09:03:28.000Z,46.2
2022-09-16T09:04:38.000Z,46.2
2022-09-16T09:05:48.000Z,46.2
2022-09-16T09:06:58.000Z,46.2
2022-09-16T09:08:08.000Z,46.2
2022-09-16T09:09:17.000Z,46.2
2022-09-16T09:10:26.000Z,46.2
2022-09-16T09:11:35.000Z,46.2
2022-09-16T09:12:45.000Z,46.2
2022-09-16T09:13:55.000Z,46.2
2022-09-16T09:15:05.000Z,46.1
2022-09-16T09:16:15.000Z,46.1
2022-09-16T09:17:26.000Z,46.1
2022-09-16T09:18:36.000Z,46.1
2022-09-16T09:19:46.000Z,46.1
2022-09-16T09:20:56.000Z,46.1
2022-09-16T09:22:06.000Z,46
2022-09-16T09:23:16.000Z,46
2022-09-16T09:24:26.000Z,46
2022-09-16T09:25:36.000Z,46
2022-09-16T09:26:45.000Z,45.9
2022-09-16T09:27:56.000Z,45.9
2022-09-16T09:29:06.000Z,45.9
2022-09-16T09:30:16.000Z,45.8
2022-09-16T09:31:26.000Z,45.8
2022-09-16T09:32:36.000Z,45.7
2022-09-16T09:33:46.000Z,45.6
2022-09-16T09:34:56.000Z,45.5
2022-09-16T09:36:05.000Z,45.5
2022-09-16T09:37:15.000Z,45.4
2022-09-16T09:38:24.000Z,45.4
2022-09-16T09:39:33.000Z,45.4
2022-09-16T09:40:43.000Z,45.3
2022-09-16T09:41:53.000Z,45.3
2022-09-16T09:43:03.000Z,45.3
2022-09-16T09:44:13.000Z,45.3
2022-09-16T09:45:23.000Z,45.2
2022-09-16T09:46:34.000Z,45.2
2022-09-16T09:47:44.000Z,45.2
2022-09-16T09:48:54.000Z,45.1
2022-09-16T09:50:04.000Z,45.1
2022-09-16T09:51:14.000Z,45
2022-09-16T09:52:24.000Z,45
2022-09-16T09:53:34.000Z,45
2022-09-16T09:54:43.000Z,44.9
2022-09-16T09:55:53.000Z,44.9
2022-09-16T09:57:04.000Z,44.9
2022-09-16T09:58:14.000Z,44.9
2022-09-16T09:59:24.000Z,44.9
2022-09-16T10:00:34.000Z,44.9
2022-09-16T10:01:44.000Z,44.9
2022-09-16T10:02:53.000Z,44.9
2022-09-16T10:04:02.000Z,44.9
2022-09-16T10:05:11.000Z,44.9
2022-09-16T10:06:21.000Z,44.9
2022-09-16T10:07:31.000Z,44.9
2022-09-16T10:08:41.000Z,44.9
2022-09-16T10:09:51.000Z,44.8
2022-09-16T10:11:01.000Z,44.7
2022-09-16T10:12:11.000Z,44.7
2022-09-16T10:13:21.000Z,44.7
2022-09-16T10:14:31.000Z,44.6
2022-09-16T10:15:42.000Z,44.6
2022-09-16T10:16:52.000Z,44.6
2022-09-16T10:18:02.000Z,44.5
2022-09-16T10:19:12.000Z,44.4
2022-09-16T10:20:22.000Z,44.4
2022-09-16T10:21:31.000Z,44.3
2022-09-16T10:22:41.000Z,44.3
2022-09-16T10:23:51.000Z,44.2
2022-09-16T10:26:12.000Z,44.1
2022-09-16T10:27:22.000Z,44
2022-09-16T10:28:32.000Z,44
2022-09-16T10:29:42.000Z,43.9
2022-09-16T10:30:51.000Z,44
2022-09-16T10:32:00.000Z,43.9
2022-09-16T10:33:09.000Z,43.9
2022-09-16T10:34:18.000Z,43.9
2022-09-16T10:35:29.000Z,43.9
2022-09-16T10:36:39.000Z,43.8
2022-09-16T10:37:49.000Z,43.8
2022-09-16T10:38:59.000Z,43.8
2022-09-16T10:40:09.000Z,43.7
2022-09-16T10:41:19.000Z,43.7
2022-09-16T10:42:29.000Z,43.7
2022-09-16T10:43:39.000Z,43.6
2022-09-16T10:44:50.000Z,43.6
2022-09-16T10:46:00.000Z,43.6
2022-09-16T10:47:10.000Z,43.5
2022-09-16T10:48:20.000Z,43.5
2022-09-16T10:49:29.000Z,43.5
2022-09-16T10:50:38.000Z,43.4
2022-09-16T10:51:48.000Z,43.4
2022-09-16T10:52:58.000Z,43.3
2022-09-16T10:54:08.000Z,43.3
2022-09-16T10:55:19.000Z,43.2
2022-09-16T10:56:29.000Z,43.2
2022-09-16T10:57:38.000Z,43.2
2022-09-16T10:58:47.000Z,43.1
2022-09-16T10:59:56.000Z,43.1
2022-09-16T11:01:05.000Z,43.1
2022-09-16T11:02:15.000Z,43.1
2022-09-16T11:03:25.000Z,43.1
2022-09-16T11:04:36.000Z,43.2
2022-09-16T11:05:46.000Z,44.8
2022-09-16T11:06:56.000Z,44.2
2022-09-16T11:08:06.000Z,43.7
2022-09-16T11:09:16.000Z,44.6
2022-09-16T11:10:26.000Z,45.6
2022-09-16T11:11:36.000Z,43.8
2022-09-16T11:12:46.000Z,43.8
2022-09-16T11:13:57.000Z,43.9
2022-09-16T11:15:07.000Z,44.9
2022-09-16T11:16:16.000Z,43.5
2022-09-16T11:17:26.000Z,43.4
2022-09-16T11:18:36.000Z,43.7
2022-09-16T11:19:46.000Z,43.6
2022-09-16T11:20:56.000Z,43.3
2022-09-16T11:22:06.000Z,43.3
2022-09-16T11:23:16.000Z,43.5
2022-09-16T11:24:26.000Z,43.4
2022-09-16T11:25:35.000Z,43.3
2022-09-16T11:26:45.000Z,43.2
2022-09-16T11:27:54.000Z,44
2022-09-16T11:29:03.000Z,43.7
2022-09-16T11:30:13.000Z,43.2
2022-09-16T11:31:23.000Z,43
2022-09-16T11:32:33.000Z,43.2
2022-09-16T11:33:44.000Z,42.9
2022-09-16T11:34:54.000Z,42.7
2022-09-16T11:36:04.000Z,43.2
2022-09-16T11:37:14.000Z,42.9
2022-09-16T11:38:24.000Z,42.5
2022-09-16T11:39:34.000Z,42.6
2022-09-16T11:40:44.000Z,42.4
2022-09-16T11:41:54.000Z,42.4
2022-09-16T11:43:05.000Z,42.4
2022-09-16T11:44:14.000Z,42.3
2022-09-16T11:45:24.000Z,42.4
2022-09-16T11:46:34.000Z,42.5
2022-09-16T11:47:44.000Z,42.1
2022-09-16T11:48:54.000Z,42.3
2022-09-16T11:50:04.000Z,43
2022-09-16T11:51:14.000Z,42.1
2022-09-16T11:52:24.000Z,41.9
2022-09-16T11:53:33.000Z,41.8
2022-09-16T11:54:43.000Z,41.9
2022-09-16T11:55:52.000Z,41.7
2022-09-16T11:57:01.000Z,41.8
2022-09-16T11:58:11.000Z,41.7
2022-09-16T11:59:21.000Z,42
2022-09-16T12:00:31.000Z,41.6
2022-09-16T12:01:41.000Z,41.9
2022-09-16T12:02:52.000Z,41.6
2022-09-16T12:04:02.000Z,41.6
2022-09-16T12:05:12.000Z,41.5
2022-09-16T12:06:22.000Z,41.8
2022-09-16T12:07:32.000Z,41.5
2022-09-16T12:08:42.000Z,41.5
2022-09-16T12:09:52.000Z,41.5
2022-09-16T12:11:02.000Z,41.4
2022-09-16T12:12:12.000Z,41.7
2022-09-16T12:13:22.000Z,41.4
2022-09-16T12:14:32.000Z,41.3
2022-09-16T12:15:42.000Z,41.4
2022-09-16T12:16:52.000Z,41.4
2022-09-16T12:18:02.000Z,41.4
2022-09-16T12:19:12.000Z,41.8
2022-09-16T12:20:21.000Z,41.5
2022-09-16T12:21:31.000Z,41.7
2022-09-16T12:22:41.000Z,41.6
2022-09-16T12:23:51.000Z,41.6
2022-09-16T12:25:00.000Z,41.9
2022-09-16T12:26:09.000Z,41.6
2022-09-16T12:27:19.000Z,41.8
2022-09-16T12:28:29.000Z,41.5
2022-09-16T12:29:39.000Z,41.9
2022-09-16T12:30:49.000Z,41.9
2022-09-16T12:32:00.000Z,41.6
2022-09-16T12:33:10.000Z,42
2022-09-16T12:34:20.000Z,41.6
2022-09-16T12:35:30.000Z,41.6
2022-09-16T12:36:40.000Z,41.4
2022-09-16T12:37:50.000Z,41.7
2022-09-16T12:39:00.000Z,41.3
2022-09-16T12:40:10.000Z,41.4
2022-09-16T12:41:20.000Z,41.4
2022-09-16T12:42:30.000Z,41.2
2022-09-16T12:43:40.000Z,41.2
2022-09-16T12:44:50.000Z,41.1
2022-09-16T12:46:00.000Z,41.6
2022-09-16T12:47:10.000Z,41.1
2022-09-16T12:48:20.000Z,41
2022-09-16T12:49:29.000Z,41
2022-09-16T12:50:39.000Z,41.4
2022-09-16T12:51:48.000Z,41.1
2022-09-16T12:52:57.000Z,41.1
2022-09-16T12:54:07.000Z,41.2
2022-09-16T12:55:17.000Z,41.3
2022-09-16T12:56:27.000Z,41.3
2022-09-16T12:57:37.000Z,41.4
2022-09-16T12:58:47.000Z,42
2022-09-16T12:59:57.000Z,41.2
2022-09-16T13:01:08.000Z,41.1
2022-09-16T13:02:18.000Z,41
2022-09-16T13:03:28.000Z,40.9
2022-09-16T13:04:38.000Z,40.9
2022-09-16T13:05:48.000Z,40.9
2022-09-16T13:06:58.000Z,41
2022-09-16T13:08:07.000Z,40.8
2022-09-16T13:09:17.000Z,40.8
2022-09-16T13:10:28.000Z,40.8
2022-09-16T13:11:38.000Z,40.7
2022-09-16T13:12:48.000Z,42.7
2022-09-16T13:13:58.000Z,40.6
2022-09-16T13:15:08.000Z,40.9
2022-09-16T13:16:17.000Z,41.6
2022-09-16T13:17:26.000Z,40.8
2022-09-16T13:18:36.000Z,40.8
2022-09-16T13:19:46.000Z,40.8
2022-09-16T13:20:55.000Z,40.8
2022-09-16T13:22:05.000Z,40.9
2022-09-16T13:23:15.000Z,40.9
2022-09-16T13:24:25.000Z,40.9
2022-09-16T13:25:35.000Z,40.9
2022-09-16T13:26:45.000Z,40.9
2022-09-16T13:27:55.000Z,41
2022-09-16T13:29:06.000Z,41
2022-09-16T13:30:16.000Z,41.1
2022-09-16T13:31:26.000Z,41.1
2022-09-16T13:32:36.000Z,41.1
2022-09-16T13:33:46.000Z,41
2022-09-16T13:34:56.000Z,41
2022-09-16T13:36:05.000Z,40.9
2022-09-16T13:37:15.000Z,40.8
2022-09-16T13:38:25.000Z,40.8
2022-09-16T13:39:36.000Z,40.7
2022-09-16T13:40:46.000Z,40.5
2022-09-16T13:41:56.000Z,40.4
2022-09-16T13:43:06.000Z,40.3
2022-09-16T13:44:15.000Z,40.3
2022-09-16T13:45:24.000Z,40.3
2022-09-16T13:46:34.000Z,40.3
2022-09-16T13:47:44.000Z,40.1
2022-09-16T13:48:55.000Z,40
2022-09-16T13:50:05.000Z,39.9
2022-09-16T13:51:15.000Z,39.9
2022-09-16T13:52:25.000Z,39.8
2022-09-16T13:53:35.000Z,39.7
2022-09-16T13:54:45.000Z,39.5
2022-09-16T13:55:55.000Z,39.4
2022-09-16T13:57:05.000Z,39.4
2022-09-16T13:58:15.000Z,39.2
2022-09-16T13:59:26.000Z,39.1
2022-09-16T14:00:35.000Z,39.1
2022-09-16T14:01:45.000Z,39.1
2022-09-16T14:02:55.000Z,39.1
2022-09-16T14:04:05.000Z,38.9
2022-09-16T14:05:15.000Z,38.8
2022-09-16T14:06:25.000Z,38.6
2022-09-16T14:07:35.000Z,38.6
2022-09-16T14:08:45.000Z,38.5
2022-09-16T14:09:54.000Z,38.4
2022-09-16T14:11:03.000Z,38.4
2022-09-16T14:12:12.000Z,38.3
2022-09-16T14:13:21.000Z,38.2
2022-09-16T14:14:30.000Z,38.2
2022-09-16T14:15:40.000Z,38.2
2022-09-16T14:16:50.000Z,38.2
2022-09-16T14:18:01.000Z,38.2
2022-09-16T14:19:11.000Z,38.1
2022-09-16T14:20:21.000Z,38
2022-09-16T14:21:31.000Z,37.9
2022-09-16T14:22:41.000Z,37.9
2022-09-16T14:23:51.000Z,37.9
2022-09-16T14:25:01.000Z,37.9
2022-09-16T14:26:11.000Z,37.8
2022-09-16T14:27:22.000Z,37.7
2022-09-16T14:28:32.000Z,37.7
2022-09-16T14:29:41.000Z,37.8
2022-09-16T14:30:51.000Z,37.7
2022-09-16T14:32:01.000Z,37.6
2022-09-16T14:33:11.000Z,37.7
2022-09-16T14:34:21.000Z,37.6
2022-09-16T14:35:31.000Z,37.6
2022-09-16T14:36:41.000Z,37.5
2022-09-16T14:37:51.000Z,37.4
2022-09-16T14:39:00.000Z,37.4
2022-09-16T14:40:09.000Z,37.3
2022-09-16T14:41:18.000Z,37.2
2022-09-16T14:42:28.000Z,37.1
2022-09-16T14:43:38.000Z,37
2022-09-16T14:44:48.000Z,36.9
2022-09-16T14:45:57.000Z,36.9
2022-09-16T14:47:08.000Z,36.8
2022-09-16T14:48:18.000Z,36.8
2022-09-16T14:49:28.000Z,36.7
2022-09-16T14:50:38.000Z,36.7
2022-09-16T14:51:48.000Z,36.7
2022-09-16T14:52:58.000Z,36.6
2022-09-16T14:54:08.000Z,36.6
2022-09-16T14:55:18.000Z,36.6
2022-09-16T14:56:29.000Z,36.6
2022-09-16T14:57:39.000Z,36.6
2022-09-16T14:58:49.000Z,36.5
2022-09-16T14:59:59.000Z,36.5
2022-09-16T15:01:08.000Z,36.5
2022-09-16T15:02:18.000Z,36.5
2022-09-16T15:03:28.000Z,36.6
2022-09-16T15:04:37.000Z,36.7
2022-09-16T15:05:47.000Z,36.7
2022-09-16T15:06:57.000Z,36.7
2022-09-16T15:08:06.000Z,36.8
2022-09-16T15:09:15.000Z,36.7
2022-09-16T15:10:25.000Z,36.7
2022-09-16T15:11:35.000Z,36.8
2022-09-16T15:12:45.000Z,36.8
2022-09-16T15:13:55.000Z,36.7
2022-09-16T15:15:05.000Z,36.7
2022-09-16T15:16:16.000Z,36.7
2022-09-16T15:17:26.000Z,36.7
2022-09-16T15:18:36.000Z,36.7
2022-09-16T15:19:46.000Z,36.7
2022-09-16T15:20:56.000Z,36.7
2022-09-16T15:22:06.000Z,36.7
2022-09-16T15:23:16.000Z,36.7
2022-09-16T15:24:25.000Z,36.7
2022-09-16T15:25:36.000Z,36.7
2022-09-16T15:26:46.000Z,36.7
2022-09-16T15:27:56.000Z,36.7
2022-09-16T15:29:06.000Z,36.7
2022-09-16T15:30:16.000Z,36.8
2022-09-16T15:31:26.000Z,36.8
2022-09-16T15:32:35.000Z,36.8
2022-09-16T15:33:44.000Z,36.7
2022-09-16T15:34:54.000Z,36.8
2022-09-16T15:36:03.000Z,36.7
2022-09-16T15:37:13.000Z,36.6
2022-09-16T15:38:23.000Z,36.6
2022-09-16T15:41:53.000Z,36.6
2022-09-16T15:43:03.000Z,36.5
2022-09-16T15:44:14.000Z,36.6
2022-09-16T15:45:24.000Z,36.6
2022-09-16T15:46:34.000Z,36.6
2022-09-16T15:47:44.000Z,36.7
2022-09-16T15:48:54.000Z,36.7
2022-09-16T15:50:04.000Z,36.7
2022-09-16T15:51:13.000Z,36.7